sensor_id;sensor_type;location;lat;lon;timestamp;P1;durP1;ratioP1;P2;durP2;ratioP2
22939;SDS011;11636;52.086;5.090;2022-09-29T00:00:30;3.47;;;2.17;;
22939;SDS011;11636;52.086;5.090;2022-09-29T00:02:57;3.67;;;2.55;;
22939;SDS011;11636;52.086;5.090;2022-09-29T00:05:32;3.53;;;2.30;;
22939;SDS011;11636;52.086;5.090;2022-09-29T00:07:59;3.65;;;2.60;;
22939;SDS011;11636;52.086;5.090;2022-09-29T00:10:26;3.78;;;2.33;;
22939;SDS011;11636;52.086;5.090;2022-09-29T00:13:00;3.80;;;2.33;;
22939;SDS011;11636;52.086;5.090;2022-09-29T00:15:27;3.70;;;2.47;;
22939;SDS011;11636;52.086;5.090;2022-09-29T00:18:00;3.88;;;2.53;;
22939;SDS011;11636;52.086;5.090;2022-09-29T00:20:39;4.10;;;2.95;;
22939;SDS011;11636;52.086;5.090;2022-09-29T00:23:13;3.97;;;2.88;;
22939;SDS011;11636;52.086;5.090;2022-09-29T00:25:40;3.95;;;2.70;;
22939;SDS011;11636;52.086;5.090;2022-09-29T00:28:13;3.20;;;2.22;;
22939;SDS011;11636;52.086;5.090;2022-09-29T00:30:40;4.55;;;2.42;;
22939;SDS011;11636;52.086;5.090;2022-09-29T00:33:07;4.43;;;3.05;;
22939;SDS011;11636;52.086;5.090;2022-09-29T00:35:57;3.55;;;2.70;;
22939;SDS011;11636;52.086;5.090;2022-09-29T00:38:35;3.53;;;2.50;;
22939;SDS011;11636;52.086;5.090;2022-09-29T00:41:02;4.80;;;2.65;;
22939;SDS011;11636;52.086;5.090;2022-09-29T00:52:01;4.18;;;2.90;;
22939;SDS011;11636;52.086;5.090;2022-09-29T00:58:26;4.68;;;3.13;;
22939;SDS011;11636;52.086;5.090;2022-09-29T01:00:44;3.95;;;3.00;;
22939;SDS011;11636;52.086;5.090;2022-09-29T01:03:12;4.55;;;3.20;;
22939;SDS011;11636;52.086;5.090;2022-09-29T01:05:56;5.25;;;3.30;;
22939;SDS011;11636;52.086;5.090;2022-09-29T01:11:05;4.78;;;3.45;;
22939;SDS011;11636;52.086;5.090;2022-09-29T01:13:32;4.85;;;3.47;;
22939;SDS011;11636;52.086;5.090;2022-09-29T01:16:01;4.25;;;3.22;;
22939;SDS011;11636;52.086;5.090;2022-09-29T01:18:35;4.15;;;2.67;;
22939;SDS011;11636;52.086;5.090;2022-09-29T01:24:13;5.57;;;3.83;;
22939;SDS011;11636;52.086;5.090;2022-09-29T01:38:25;5.63;;;4.13;;
22939;SDS011;11636;52.086;5.090;2022-09-29T01:41:29;5.72;;;4.10;;
22939;SDS011;11636;52.086;5.090;2022-09-29T01:44:32;6.15;;;4.20;;
22939;SDS011;11636;52.086;5.090;2022-09-29T01:47:18;6.35;;;4.50;;
22939;SDS011;11636;52.086;5.090;2022-09-29T01:49:57;5.45;;;3.63;;
22939;SDS011;11636;52.086;5.090;2022-09-29T01:52:40;5.68;;;4.28;;
22939;SDS011;11636;52.086;5.090;2022-09-29T01:55:11;5.37;;;3.90;;
22939;SDS011;11636;52.086;5.090;2022-09-29T01:57:52;5.40;;;4.30;;
22939;SDS011;11636;52.086;5.090;2022-09-29T02:00:34;6.40;;;3.97;;
22939;SDS011;11636;52.086;5.090;2022-09-29T02:06:13;4.88;;;3.80;;
22939;SDS011;11636;52.086;5.090;2022-09-29T02:08:52;5.93;;;4.22;;
22939;SDS011;11636;52.086;5.090;2022-09-29T02:11:21;4.80;;;3.47;;
22939;SDS011;11636;52.086;5.090;2022-09-29T02:13:56;4.55;;;3.60;;
22939;SDS011;11636;52.086;5.090;2022-09-29T02:16:45;4.97;;;3.85;;
22939;SDS011;11636;52.086;5.090;2022-09-29T02:19:24;5.30;;;3.97;;
22939;SDS011;11636;52.086;5.090;2022-09-29T02:22:00;4.95;;;3.90;;
22939;SDS011;11636;52.086;5.090;2022-09-29T02:24:34;4.95;;;3.92;;
22939;SDS011;11636;52.086;5.090;2022-09-29T02:27:01;6.00;;;4.65;;
22939;SDS011;11636;52.086;5.090;2022-09-29T02:29:36;4.72;;;3.83;;
22939;SDS011;11636;52.086;5.090;2022-09-29T02:32:04;5.72;;;4.10;;
22939;SDS011;11636;52.086;5.090;2022-09-29T02:34:43;6.60;;;4.07;;
22939;SDS011;11636;52.086;5.090;2022-09-29T02:40:01;6.38;;;4.70;;
22939;SDS011;11636;52.086;5.090;2022-09-29T02:53:53;5.18;;;4.10;;
22939;SDS011;11636;52.086;5.090;2022-09-29T02:56:49;5.90;;;4.25;;
22939;SDS011;11636;52.086;5.090;2022-09-29T02:59:34;5.25;;;4.15;;
22939;SDS011;11636;52.086;5.090;2022-09-29T03:02:14;5.57;;;4.03;;
22939;SDS011;11636;52.086;5.090;2022-09-29T03:04:41;6.57;;;4.25;;
22939;SDS011;11636;52.086;5.090;2022-09-29T03:07:08;5.55;;;4.50;;
22939;SDS011;11636;52.086;5.090;2022-09-29T03:09:41;5.05;;;4.00;;
22939;SDS011;11636;52.086;5.090;2022-09-29T03:12:09;5.47;;;4.38;;
22939;SDS011;11636;52.086;5.090;2022-09-29T03:14:36;5.07;;;3.80;;
22939;SDS011;11636;52.086;5.090;2022-09-29T03:17:10;4.90;;;4.10;;
22939;SDS011;11636;52.086;5.090;2022-09-29T03:19:43;4.82;;;3.65;;
22939;SDS011;11636;52.086;5.090;2022-09-29T03:22:10;4.78;;;3.50;;
22939;SDS011;11636;52.086;5.090;2022-09-29T03:24:44;5.13;;;4.13;;
22939;SDS011;11636;52.086;5.090;2022-09-29T03:27:11;6.80;;;4.40;;
22939;SDS011;11636;52.086;5.090;2022-09-29T03:29:38;5.10;;;3.88;;
22939;SDS011;11636;52.086;5.090;2022-09-29T03:32:11;5.13;;;4.05;;
22939;SDS011;11636;52.086;5.090;2022-09-29T03:34:45;6.53;;;4.38;;
22939;SDS011;11636;52.086;5.090;2022-09-29T03:37:12;5.03;;;3.88;;
22939;SDS011;11636;52.086;5.090;2022-09-29T03:39:39;6.20;;;4.50;;
22939;SDS011;11636;52.086;5.090;2022-09-29T03:42:11;5.57;;;4.20;;
22939;SDS011;11636;52.086;5.090;2022-09-29T03:44:38;6.00;;;4.38;;
22939;SDS011;11636;52.086;5.090;2022-09-29T03:47:11;6.28;;;4.30;;
22939;SDS011;11636;52.086;5.090;2022-09-29T03:49:38;5.15;;;4.15;;
22939;SDS011;11636;52.086;5.090;2022-09-29T03:52:11;5.55;;;3.95;;
22939;SDS011;11636;52.086;5.090;2022-09-29T03:54:44;4.78;;;3.95;;
22939;SDS011;11636;52.086;5.090;2022-09-29T03:57:11;4.95;;;4.03;;
22939;SDS011;11636;52.086;5.090;2022-09-29T03:59:45;5.25;;;4.28;;
22939;SDS011;11636;52.086;5.090;2022-09-29T04:02:12;6.28;;;4.60;;
22939;SDS011;11636;52.086;5.090;2022-09-29T04:04:46;5.38;;;3.78;;
22939;SDS011;11636;52.086;5.090;2022-09-29T04:07:12;5.63;;;4.47;;
22939;SDS011;11636;52.086;5.090;2022-09-29T04:09:45;4.65;;;3.90;;
22939;SDS011;11636;52.086;5.090;2022-09-29T04:12:18;5.80;;;4.30;;
22939;SDS011;11636;52.086;5.090;2022-09-29T04:14:45;5.80;;;4.55;;
22939;SDS011;11636;52.086;5.090;2022-09-29T04:17:18;5.43;;;4.28;;
22939;SDS011;11636;52.086;5.090;2022-09-29T04:19:53;6.10;;;4.47;;
22939;SDS011;11636;52.086;5.090;2022-09-29T04:22:19;5.65;;;4.50;;
22939;SDS011;11636;52.086;5.090;2022-09-29T04:24:46;5.78;;;4.35;;
22939;SDS011;11636;52.086;5.090;2022-09-29T04:27:20;6.80;;;4.78;;
22939;SDS011;11636;52.086;5.090;2022-09-29T04:29:46;5.30;;;4.45;;
22939;SDS011;11636;52.086;5.090;2022-09-29T04:32:13;5.68;;;4.35;;
22939;SDS011;11636;52.086;5.090;2022-09-29T04:34:47;5.95;;;4.70;;
22939;SDS011;11636;52.086;5.090;2022-09-29T04:37:20;5.13;;;4.25;;
22939;SDS011;11636;52.086;5.090;2022-09-29T04:39:46;6.15;;;4.47;;
22939;SDS011;11636;52.086;5.090;2022-09-29T04:42:16;5.90;;;4.25;;
22939;SDS011;11636;52.086;5.090;2022-09-29T04:44:48;6.50;;;4.68;;
22939;SDS011;11636;52.086;5.090;2022-09-29T04:47:16;5.95;;;4.45;;
22939;SDS011;11636;52.086;5.090;2022-09-29T04:49:49;6.07;;;4.60;;
22939;SDS011;11636;52.086;5.090;2022-09-29T04:52:16;5.38;;;4.18;;
22939;SDS011;11636;52.086;5.090;2022-09-29T04:54:49;5.93;;;4.50;;
22939;SDS011;11636;52.086;5.090;2022-09-29T04:57:15;6.45;;;4.65;;
22939;SDS011;11636;52.086;5.090;2022-09-29T04:59:42;6.45;;;4.72;;
22939;SDS011;11636;52.086;5.090;2022-09-29T05:02:16;6.38;;;4.88;;
22939;SDS011;11636;52.086;5.090;2022-09-29T05:04:44;5.93;;;4.50;;
22939;SDS011;11636;52.086;5.090;2022-09-29T05:07:19;6.68;;;4.50;;
22939;SDS011;11636;52.086;5.090;2022-09-29T05:09:45;6.30;;;4.55;;
22939;SDS011;11636;52.086;5.090;2022-09-29T05:12:19;6.18;;;4.90;;
22939;SDS011;11636;52.086;5.090;2022-09-29T05:14:46;5.75;;;4.80;;
22939;SDS011;11636;52.086;5.090;2022-09-29T05:17:20;6.30;;;4.80;;
22939;SDS011;11636;52.086;5.090;2022-09-29T05:19:46;6.43;;;4.57;;
22939;SDS011;11636;52.086;5.090;2022-09-29T05:22:20;6.18;;;4.75;;
22939;SDS011;11636;52.086;5.090;2022-09-29T05:24:50;5.70;;;4.63;;
22939;SDS011;11636;52.086;5.090;2022-09-29T05:27:24;6.00;;;4.50;;
22939;SDS011;11636;52.086;5.090;2022-09-29T05:29:50;7.90;;;5.22;;
22939;SDS011;11636;52.086;5.090;2022-09-29T05:32:17;6.47;;;5.07;;
22939;SDS011;11636;52.086;5.090;2022-09-29T05:34:51;6.05;;;4.63;;
22939;SDS011;11636;52.086;5.090;2022-09-29T05:37:24;5.72;;;4.75;;
22939;SDS011;11636;52.086;5.090;2022-09-29T05:39:57;6.20;;;4.80;;
22939;SDS011;11636;52.086;5.090;2022-09-29T05:42:30;6.60;;;4.90;;
22939;SDS011;11636;52.086;5.090;2022-09-29T05:44:57;6.40;;;5.13;;
22939;SDS011;11636;52.086;5.090;2022-09-29T05:47:24;6.60;;;4.95;;
22939;SDS011;11636;52.086;5.090;2022-09-29T05:49:58;6.60;;;4.80;;
22939;SDS011;11636;52.086;5.090;2022-09-29T05:52:24;7.00;;;4.95;;
22939;SDS011;11636;52.086;5.090;2022-09-29T05:54:51;6.28;;;4.90;;
22939;SDS011;11636;52.086;5.090;2022-09-29T05:57:31;6.82;;;4.90;;
22939;SDS011;11636;52.086;5.090;2022-09-29T05:59:58;6.72;;;5.50;;
22939;SDS011;11636;52.086;5.090;2022-09-29T06:02:37;6.80;;;5.28;;
22939;SDS011;11636;52.086;5.090;2022-09-29T06:05:05;6.82;;;5.32;;
22939;SDS011;11636;52.086;5.090;2022-09-29T06:07:39;7.00;;;4.97;;
22939;SDS011;11636;52.086;5.090;2022-09-29T06:10:12;6.68;;;5.00;;
22939;SDS011;11636;52.086;5.090;2022-09-29T06:12:38;6.47;;;5.05;;
22939;SDS011;11636;52.086;5.090;2022-09-29T06:15:12;5.65;;;4.63;;
22939;SDS011;11636;52.086;5.090;2022-09-29T06:17:39;6.50;;;4.88;;
22939;SDS011;11636;52.086;5.090;2022-09-29T06:20:12;6.20;;;4.95;;
22939;SDS011;11636;52.086;5.090;2022-09-29T06:22:39;6.97;;;5.25;;
22939;SDS011;11636;52.086;5.090;2022-09-29T06:25:12;8.52;;;5.95;;
22939;SDS011;11636;52.086;5.090;2022-09-29T06:27:39;7.45;;;5.63;;
22939;SDS011;11636;52.086;5.090;2022-09-29T06:30:12;7.20;;;5.65;;
22939;SDS011;11636;52.086;5.090;2022-09-29T06:32:39;8.27;;;5.90;;
22939;SDS011;11636;52.086;5.090;2022-09-29T06:35:06;7.57;;;5.72;;
22939;SDS011;11636;52.086;5.090;2022-09-29T06:37:59;8.27;;;5.88;;
22939;SDS011;11636;52.086;5.090;2022-09-29T06:40:34;8.20;;;5.82;;
22939;SDS011;11636;52.086;5.090;2022-09-29T06:43:07;7.60;;;6.03;;
22939;SDS011;11636;52.086;5.090;2022-09-29T06:45:34;8.75;;;6.03;;
22939;SDS011;11636;52.086;5.090;2022-09-29T06:48:01;10.43;;;7.00;;
22939;SDS011;11636;52.086;5.090;2022-09-29T06:50:35;8.90;;;6.28;;
22939;SDS011;11636;52.086;5.090;2022-09-29T06:53:01;8.23;;;5.65;;
22939;SDS011;11636;52.086;5.090;2022-09-29T06:55:35;9.75;;;6.90;;
22939;SDS011;11636;52.086;5.090;2022-09-29T06:58:02;9.10;;;6.57;;
22939;SDS011;11636;52.086;5.090;2022-09-29T07:00:36;9.40;;;6.32;;
22939;SDS011;11636;52.086;5.090;2022-09-29T07:03:15;9.50;;;6.45;;
22939;SDS011;11636;52.086;5.090;2022-09-29T07:05:48;8.10;;;5.80;;
22939;SDS011;11636;52.086;5.090;2022-09-29T07:08:35;10.40;;;7.25;;
22939;SDS011;11636;52.086;5.090;2022-09-29T07:11:11;10.10;;;6.88;;
22939;SDS011;11636;52.086;5.090;2022-09-29T07:13:38;8.18;;;6.10;;
22939;SDS011;11636;52.086;5.090;2022-09-29T07:16:16;7.07;;;4.93;;
22939;SDS011;11636;52.086;5.090;2022-09-29T07:18:43;7.47;;;5.45;;
22939;SDS011;11636;52.086;5.090;2022-09-29T07:21:18;7.25;;;5.50;;
22939;SDS011;11636;52.086;5.090;2022-09-29T07:23:46;8.13;;;6.22;;
22939;SDS011;11636;52.086;5.090;2022-09-29T07:26:14;7.30;;;5.57;;
22939;SDS011;11636;52.086;5.090;2022-09-29T07:28:48;7.85;;;6.07;;
22939;SDS011;11636;52.086;5.090;2022-09-29T07:31:21;8.45;;;6.03;;
22939;SDS011;11636;52.086;5.090;2022-09-29T07:33:48;8.20;;;5.53;;
22939;SDS011;11636;52.086;5.090;2022-09-29T07:36:17;8.40;;;6.07;;
22939;SDS011;11636;52.086;5.090;2022-09-29T07:38:51;8.60;;;6.30;;
22939;SDS011;11636;52.086;5.090;2022-09-29T07:41:19;8.45;;;6.20;;
22939;SDS011;11636;52.086;5.090;2022-09-29T07:43:53;9.25;;;6.82;;
22939;SDS011;11636;52.086;5.090;2022-09-29T07:46:20;7.18;;;5.43;;
22939;SDS011;11636;52.086;5.090;2022-09-29T07:48:53;7.78;;;5.97;;
22939;SDS011;11636;52.086;5.090;2022-09-29T07:51:26;7.45;;;6.22;;
22939;SDS011;11636;52.086;5.090;2022-09-29T07:53:53;9.88;;;7.07;;
22939;SDS011;11636;52.086;5.090;2022-09-29T07:56:26;8.25;;;6.13;;
22939;SDS011;11636;52.086;5.090;2022-09-29T07:58:53;11.05;;;7.88;;
22939;SDS011;11636;52.086;5.090;2022-09-29T08:01:21;8.07;;;6.28;;
22939;SDS011;11636;52.086;5.090;2022-09-29T08:03:54;6.70;;;5.55;;
22939;SDS011;11636;52.086;5.090;2022-09-29T08:06:21;8.35;;;6.25;;
22939;SDS011;11636;52.086;5.090;2022-09-29T08:08:56;9.15;;;6.63;;
22939;SDS011;11636;52.086;5.090;2022-09-29T08:11:30;8.85;;;6.40;;
22939;SDS011;11636;52.086;5.090;2022-09-29T08:14:05;10.48;;;7.20;;
22939;SDS011;11636;52.086;5.090;2022-09-29T08:16:33;9.20;;;6.63;;
22939;SDS011;11636;52.086;5.090;2022-09-29T08:19:07;9.23;;;6.68;;
22939;SDS011;11636;52.086;5.090;2022-09-29T08:21:34;8.45;;;6.88;;
22939;SDS011;11636;52.086;5.090;2022-09-29T08:24:11;10.70;;;7.75;;
22939;SDS011;11636;52.086;5.090;2022-09-29T08:26:38;8.80;;;6.13;;
22939;SDS011;11636;52.086;5.090;2022-09-29T08:29:13;9.65;;;7.30;;
22939;SDS011;11636;52.086;5.090;2022-09-29T08:31:42;11.75;;;9.00;;
22939;SDS011;11636;52.086;5.090;2022-09-29T08:34:16;10.85;;;8.23;;
22939;SDS011;11636;52.086;5.090;2022-09-29T08:36:49;12.23;;;9.35;;
22939;SDS011;11636;52.086;5.090;2022-09-29T08:39:17;10.07;;;7.40;;
22939;SDS011;11636;52.086;5.090;2022-09-29T08:42:04;9.30;;;7.00;;
22939;SDS011;11636;52.086;5.090;2022-09-29T08:44:55;10.48;;;8.30;;
22939;SDS011;11636;52.086;5.090;2022-09-29T08:47:48;7.55;;;6.03;;
22939;SDS011;11636;52.086;5.090;2022-09-29T08:50:28;7.50;;;5.80;;
22939;SDS011;11636;52.086;5.090;2022-09-29T08:53:07;6.97;;;5.20;;
22939;SDS011;11636;52.086;5.090;2022-09-29T08:55:59;6.13;;;5.07;;
22939;SDS011;11636;52.086;5.090;2022-09-29T08:58:28;6.72;;;5.30;;
22939;SDS011;11636;52.086;5.090;2022-09-29T09:01:15;5.80;;;4.40;;
22939;SDS011;11636;52.086;5.090;2022-09-29T09:18:50;9.75;;;8.30;;
22939;SDS011;11636;52.086;5.090;2022-09-29T09:21:25;9.38;;;7.32;;
22939;SDS011;11636;52.086;5.090;2022-09-29T09:24:20;8.63;;;7.18;;
22939;SDS011;11636;52.086;5.090;2022-09-29T09:26:53;8.88;;;7.05;;
22939;SDS011;11636;52.086;5.090;2022-09-29T09:29:31;9.50;;;7.45;;
22939;SDS011;11636;52.086;5.090;2022-09-29T09:37:48;6.85;;;5.70;;
22939;SDS011;11636;52.086;5.090;2022-09-29T09:40:26;8.05;;;6.28;;
22939;SDS011;11636;52.086;5.090;2022-09-29T09:43:23;6.97;;;5.13;;
22939;SDS011;11636;52.086;5.090;2022-09-29T09:46:02;6.82;;;5.15;;
22939;SDS011;11636;52.086;5.090;2022-09-29T09:48:42;6.00;;;4.82;;
22939;SDS011;11636;52.086;5.090;2022-09-29T09:53:51;8.00;;;5.78;;
22939;SDS011;11636;52.086;5.090;2022-09-29T09:56:40;9.25;;;6.40;;
22939;SDS011;11636;52.086;5.090;2022-09-29T09:59:39;8.90;;;7.35;;
22939;SDS011;11636;52.086;5.090;2022-09-29T10:02:19;6.93;;;5.40;;
22939;SDS011;11636;52.086;5.090;2022-09-29T10:04:53;5.65;;;4.07;;
22939;SDS011;11636;52.086;5.090;2022-09-29T10:07:22;7.18;;;5.25;;
22939;SDS011;11636;52.086;5.090;2022-09-29T10:09:52;4.93;;;3.75;;
22939;SDS011;11636;52.086;5.090;2022-09-29T10:12:26;8.50;;;6.55;;
22939;SDS011;11636;52.086;5.090;2022-09-29T10:14:55;6.82;;;5.03;;
22939;SDS011;11636;52.086;5.090;2022-09-29T10:17:36;7.07;;;5.40;;
22939;SDS011;11636;52.086;5.090;2022-09-29T10:20:13;7.75;;;6.10;;
22939;SDS011;11636;52.086;5.090;2022-09-29T10:25:57;7.65;;;6.35;;
22939;SDS011;11636;52.086;5.090;2022-09-29T10:28:39;7.95;;;6.13;;
22939;SDS011;11636;52.086;5.090;2022-09-29T10:31:16;9.40;;;7.10;;
22939;SDS011;11636;52.086;5.090;2022-09-29T10:36:31;7.22;;;5.20;;
22939;SDS011;11636;52.086;5.090;2022-09-29T10:45:09;7.70;;;5.95;;
22939;SDS011;11636;52.086;5.090;2022-09-29T10:50:20;7.13;;;5.10;;
22939;SDS011;11636;52.086;5.090;2022-09-29T10:53:03;7.65;;;5.85;;
22939;SDS011;11636;52.086;5.090;2022-09-29T10:55:55;6.53;;;5.20;;
22939;SDS011;11636;52.086;5.090;2022-09-29T11:01:25;7.10;;;5.70;;
22939;SDS011;11636;52.086;5.090;2022-09-29T11:04:01;5.47;;;4.03;;
22939;SDS011;11636;52.086;5.090;2022-09-29T11:06:40;5.07;;;3.83;;
22939;SDS011;11636;52.086;5.090;2022-09-29T11:11:53;4.60;;;3.03;;
22939;SDS011;11636;52.086;5.090;2022-09-29T11:19:56;4.22;;;3.33;;
22939;SDS011;11636;52.086;5.090;2022-09-29T11:22:47;4.55;;;3.85;;
22939;SDS011;11636;52.086;5.090;2022-09-29T11:28:33;6.65;;;5.03;;
22939;SDS011;11636;52.086;5.090;2022-09-29T11:37:16;5.72;;;3.88;;
22939;SDS011;11636;52.086;5.090;2022-09-29T11:45:44;2.95;;;2.17;;
22939;SDS011;11636;52.086;5.090;2022-09-29T11:59:51;3.35;;;2.22;;
22939;SDS011;11636;52.086;5.090;2022-09-29T12:06:14;3.50;;;1.70;;
22939;SDS011;11636;52.086;5.090;2022-09-29T12:11:39;3.88;;;2.58;;
22939;SDS011;11636;52.086;5.090;2022-09-29T12:17:39;3.97;;;2.30;;
22939;SDS011;11636;52.086;5.090;2022-09-29T12:23:03;7.15;;;3.70;;
22939;SDS011;11636;52.086;5.090;2022-09-29T12:25:37;4.30;;;2.20;;
22939;SDS011;11636;52.086;5.090;2022-09-29T12:28:16;2.63;;;1.55;;
22939;SDS011;11636;52.086;5.090;2022-09-29T12:30:46;4.97;;;2.60;;
22939;SDS011;11636;52.086;5.090;2022-09-29T12:33:32;5.57;;;3.00;;
22939;SDS011;11636;52.086;5.090;2022-09-29T12:39:22;5.25;;;3.25;;
22939;SDS011;11636;52.086;5.090;2022-09-29T12:50:19;3.08;;;1.60;;
22939;SDS011;11636;52.086;5.090;2022-09-29T12:55:37;2.00;;;1.08;;
22939;SDS011;11636;52.086;5.090;2022-09-29T12:58:21;2.65;;;1.10;;
22939;SDS011;11636;52.086;5.090;2022-09-29T13:01:27;1.73;;;0.80;;
22939;SDS011;11636;52.086;5.090;2022-09-29T13:12:35;2.22;;;1.35;;
22939;SDS011;11636;52.086;5.090;2022-09-29T13:18:21;2.33;;;1.20;;
22939;SDS011;11636;52.086;5.090;2022-09-29T13:24:29;2.95;;;1.55;;
22939;SDS011;11636;52.086;5.090;2022-09-29T13:27:31;2.65;;;1.55;;
22939;SDS011;11636;52.086;5.090;2022-09-29T13:32:45;2.85;;;1.50;;
22939;SDS011;11636;52.086;5.090;2022-09-29T13:35:19;3.20;;;1.67;;
22939;SDS011;11636;52.086;5.090;2022-09-29T13:38:00;2.67;;;1.60;;
22939;SDS011;11636;52.086;5.090;2022-09-29T13:40:35;3.78;;;1.75;;
22939;SDS011;11636;52.086;5.090;2022-09-29T13:43:13;2.80;;;1.70;;
22939;SDS011;11636;52.086;5.090;2022-09-29T13:49:14;2.75;;;1.48;;
22939;SDS011;11636;52.086;5.090;2022-09-29T13:51:59;2.30;;;1.33;;
22939;SDS011;11636;52.086;5.090;2022-09-29T13:54:52;3.25;;;1.85;;
22939;SDS011;11636;52.086;5.090;2022-09-29T13:57:25;2.85;;;1.70;;
22939;SDS011;11636;52.086;5.090;2022-09-29T14:02:28;3.50;;;1.50;;
22939;SDS011;11636;52.086;5.090;2022-09-29T14:13:02;2.80;;;1.90;;
22939;SDS011;11636;52.086;5.090;2022-09-29T14:15:59;3.10;;;1.55;;
22939;SDS011;11636;52.086;5.090;2022-09-29T14:19:07;4.00;;;1.60;;
22939;SDS011;11636;52.086;5.090;2022-09-29T14:22:56;2.50;;;1.23;;
22939;SDS011;11636;52.086;5.090;2022-09-29T14:27:46;2.88;;;1.50;;
22939;SDS011;11636;52.086;5.090;2022-09-29T14:33:23;2.50;;;1.33;;
22939;SDS011;11636;52.086;5.090;2022-09-29T14:38:38;2.30;;;1.20;;
22939;SDS011;11636;52.086;5.090;2022-09-29T14:43:52;2.38;;;1.23;;
22939;SDS011;11636;52.086;5.090;2022-09-29T14:55:48;3.08;;;1.60;;
22939;SDS011;11636;52.086;5.090;2022-09-29T15:01:35;2.33;;;1.00;;
22939;SDS011;11636;52.086;5.090;2022-09-29T15:04:26;1.70;;;0.65;;
22939;SDS011;11636;52.086;5.090;2022-09-29T15:07:02;1.95;;;0.68;;
22939;SDS011;11636;52.086;5.090;2022-09-29T15:09:33;1.83;;;0.65;;
22939;SDS011;11636;52.086;5.090;2022-09-29T15:12:15;1.55;;;0.52;;
22939;SDS011;11636;52.086;5.090;2022-09-29T15:14:45;1.27;;;0.50;;
22939;SDS011;11636;52.086;5.090;2022-09-29T15:17:24;1.38;;;0.50;;
22939;SDS011;11636;52.086;5.090;2022-09-29T15:25:39;0.65;;;0.20;;
22939;SDS011;11636;52.086;5.090;2022-09-29T15:30:54;0.73;;;0.30;;
22939;SDS011;11636;52.086;5.090;2022-09-29T15:33:36;0.82;;;0.30;;
22939;SDS011;11636;52.086;5.090;2022-09-29T15:36:05;1.00;;;0.35;;
22939;SDS011;11636;52.086;5.090;2022-09-29T15:41:20;2.00;;;0.32;;
22939;SDS011;11636;52.086;5.090;2022-09-29T15:44:01;1.02;;;0.30;;
22939;SDS011;11636;52.086;5.090;2022-09-29T15:46:50;0.82;;;0.30;;
22939;SDS011;11636;52.086;5.090;2022-09-29T15:49:29;0.70;;;0.25;;
22939;SDS011;11636;52.086;5.090;2022-09-29T15:52:01;0.82;;;0.20;;
22939;SDS011;11636;52.086;5.090;2022-09-29T15:54:40;0.55;;;0.20;;
22939;SDS011;11636;52.086;5.090;2022-09-29T16:03:05;1.42;;;0.40;;
22939;SDS011;11636;52.086;5.090;2022-09-29T16:06:01;1.10;;;0.40;;
22939;SDS011;11636;52.086;5.090;2022-09-29T16:08:38;1.25;;;0.40;;
22939;SDS011;11636;52.086;5.090;2022-09-29T16:11:19;1.23;;;0.40;;
22939;SDS011;11636;52.086;5.090;2022-09-29T16:14:01;1.48;;;0.60;;
22939;SDS011;11636;52.086;5.090;2022-09-29T16:16:39;1.63;;;0.45;;
22939;SDS011;11636;52.086;5.090;2022-09-29T16:19:26;1.27;;;0.50;;
22939;SDS011;11636;52.086;5.090;2022-09-29T16:21:57;1.00;;;0.40;;
22939;SDS011;11636;52.086;5.090;2022-09-29T16:24:34;1.23;;;0.43;;
22939;SDS011;11636;52.086;5.090;2022-09-29T16:27:02;1.63;;;0.77;;
22939;SDS011;11636;52.086;5.090;2022-09-29T16:29:40;1.33;;;0.60;;
22939;SDS011;11636;52.086;5.090;2022-09-29T16:41:09;2.00;;;0.60;;
22939;SDS011;11636;52.086;5.090;2022-09-29T16:43:49;1.25;;;0.45;;
22939;SDS011;11636;52.086;5.090;2022-09-29T16:46:17;1.85;;;0.63;;
22939;SDS011;11636;52.086;5.090;2022-09-29T16:48:53;1.10;;;0.40;;
22939;SDS011;11636;52.086;5.090;2022-09-29T16:51:26;1.48;;;0.50;;
22939;SDS011;11636;52.086;5.090;2022-09-29T16:54:04;1.40;;;0.40;;
22939;SDS011;11636;52.086;5.090;2022-09-29T16:56:38;1.38;;;0.50;;
22939;SDS011;11636;52.086;5.090;2022-09-29T16:59:10;0.95;;;0.40;;
22939;SDS011;11636;52.086;5.090;2022-09-29T17:01:45;1.20;;;0.38;;
22939;SDS011;11636;52.086;5.090;2022-09-29T17:04:20;1.10;;;0.40;;
22939;SDS011;11636;52.086;5.090;2022-09-29T17:06:54;0.90;;;0.40;;
22939;SDS011;11636;52.086;5.090;2022-09-29T17:09:22;1.30;;;0.40;;
22939;SDS011;11636;52.086;5.090;2022-09-29T17:11:58;1.25;;;0.40;;
22939;SDS011;11636;52.086;5.090;2022-09-29T17:14:31;1.30;;;0.40;;
22939;SDS011;11636;52.086;5.090;2022-09-29T17:16:57;1.20;;;0.30;;
22939;SDS011;11636;52.086;5.090;2022-09-29T17:19:31;1.25;;;0.40;;
22939;SDS011;11636;52.086;5.090;2022-09-29T17:21:58;1.17;;;0.45;;
22939;SDS011;11636;52.086;5.090;2022-09-29T17:24:32;1.15;;;0.40;;
22939;SDS011;11636;52.086;5.090;2022-09-29T17:26:58;1.40;;;0.50;;
22939;SDS011;11636;52.086;5.090;2022-09-29T17:29:51;1.58;;;0.63;;
22939;SDS011;11636;52.086;5.090;2022-09-29T17:32:24;1.30;;;0.55;;
22939;SDS011;11636;52.086;5.090;2022-09-29T17:34:52;1.88;;;0.70;;
22939;SDS011;11636;52.086;5.090;2022-09-29T17:37:25;1.52;;;0.70;;
22939;SDS011;11636;52.086;5.090;2022-09-29T17:39:52;2.30;;;0.93;;
22939;SDS011;11636;52.086;5.090;2022-09-29T17:42:25;2.60;;;0.80;;
22939;SDS011;11636;52.086;5.090;2022-09-29T17:44:52;2.08;;;0.90;;
22939;SDS011;11636;52.086;5.090;2022-09-29T17:47:25;3.22;;;1.40;;
22939;SDS011;11636;52.086;5.090;2022-09-29T17:49:55;3.90;;;1.92;;
22939;SDS011;11636;52.086;5.090;2022-09-29T17:52:29;3.97;;;2.00;;
22939;SDS011;11636;52.086;5.090;2022-09-29T17:55:04;3.47;;;1.73;;
22939;SDS011;11636;52.086;5.090;2022-09-29T17:57:43;3.75;;;1.77;;
22939;SDS011;11636;52.086;5.090;2022-09-29T18:00:13;3.35;;;1.45;;
22939;SDS011;11636;52.086;5.090;2022-09-29T18:02:56;2.88;;;1.40;;
22939;SDS011;11636;52.086;5.090;2022-09-29T18:05:25;2.63;;;1.25;;
22939;SDS011;11636;52.086;5.090;2022-09-29T18:08:00;3.33;;;1.50;;
22939;SDS011;11636;52.086;5.090;2022-09-29T18:13:15;2.97;;;1.40;;
22939;SDS011;11636;52.086;5.090;2022-09-29T18:15:41;2.85;;;1.13;;
22939;SDS011;11636;52.086;5.090;2022-09-29T18:18:20;2.30;;;1.00;;
22939;SDS011;11636;52.086;5.090;2022-09-29T18:20:54;2.33;;;1.00;;
22939;SDS011;11636;52.086;5.090;2022-09-29T18:23:28;2.42;;;1.05;;
22939;SDS011;11636;52.086;5.090;2022-09-29T18:25:55;2.22;;;0.90;;
22939;SDS011;11636;52.086;5.090;2022-09-29T18:28:22;2.10;;;1.00;;
22939;SDS011;11636;52.086;5.090;2022-09-29T18:33:55;3.03;;;1.20;;
22939;SDS011;11636;52.086;5.090;2022-09-29T18:36:29;1.88;;;1.05;;
22939;SDS011;11636;52.086;5.090;2022-09-29T18:38:56;2.38;;;1.00;;
22939;SDS011;11636;52.086;5.090;2022-09-29T18:41:23;2.72;;;1.30;;
22939;SDS011;11636;52.086;5.090;2022-09-29T18:43:56;3.42;;;1.20;;
22939;SDS011;11636;52.086;5.090;2022-09-29T18:46:24;2.65;;;1.10;;
22939;SDS011;11636;52.086;5.090;2022-09-29T18:48:51;3.75;;;1.38;;
22939;SDS011;11636;52.086;5.090;2022-09-29T18:51:25;3.50;;;1.52;;
22939;SDS011;11636;52.086;5.090;2022-09-29T18:53:58;3.47;;;1.48;;
22939;SDS011;11636;52.086;5.090;2022-09-29T18:56:25;3.30;;;1.70;;
22939;SDS011;11636;52.086;5.090;2022-09-29T18:58:58;3.40;;;1.88;;
22939;SDS011;11636;52.086;5.090;2022-09-29T19:01:32;3.92;;;2.05;;
22939;SDS011;11636;52.086;5.090;2022-09-29T19:03:59;4.75;;;2.47;;
22939;SDS011;11636;52.086;5.090;2022-09-29T19:06:33;6.78;;;3.47;;
22939;SDS011;11636;52.086;5.090;2022-09-29T19:09:00;8.07;;;3.78;;
22939;SDS011;11636;52.086;5.090;2022-09-29T19:11:33;7.40;;;3.42;;
22939;SDS011;11636;52.086;5.090;2022-09-29T19:14:06;7.80;;;3.85;;
22939;SDS011;11636;52.086;5.090;2022-09-29T19:16:33;7.82;;;4.18;;
22939;SDS011;11636;52.086;5.090;2022-09-29T19:19:07;7.93;;;4.15;;
22939;SDS011;11636;52.086;5.090;2022-09-29T19:21:35;7.90;;;3.90;;
22939;SDS011;11636;52.086;5.090;2022-09-29T19:24:09;7.97;;;4.28;;
22939;SDS011;11636;52.086;5.090;2022-09-29T19:26:43;9.80;;;5.05;;